createdAt,value
2023-01-12T00:03:51.123Z,96080.53
2023-01-12T00:08:53.254Z,96076.59
2023-01-12T00:13:55.868Z,96059.44
2023-01-12T00:18:57.911Z,96055.41
2023-01-12T00:23:59.667Z,96065.00
2023-01-12T00:29:01.821Z,96073.56
2023-01-12T00:34:03.746Z,96056.75
2023-01-12T00:39:05.834Z,96045.78
2023-01-12T00:44:26.265Z,96062.44
2023-01-12T00:49:28.422Z,96054.97
2023-01-12T00:54:30.243Z,96057.25
2023-01-12T00:59:32.412Z,96062.75
2023-01-12T01:04:37.156Z,96070.91
2023-01-12T01:09:39.123Z,96069.03
2023-01-12T01:14:40.985Z,96074.91
2023-01-12T01:19:43.883Z,96072.22
2023-01-12T01:24:45.872Z,96087.34
2023-01-12T01:29:47.839Z,96088.84
2023-01-12T01:34:49.636Z,96094.53
2023-01-12T01:39:52.587Z,96096.69
2023-01-12T01:44:57.517Z,96087.19
2023-01-12T01:50:02.507Z,96085.22
2023-01-12T01:55:14.104Z,96099.53
2023-01-12T02:00:16.494Z,96081.63
2023-01-12T02:05:21.779Z,96082.00
2023-01-12T02:10:23.798Z,96083.50
2023-01-12T02:15:47.204Z,96106.03
2023-01-12T02:21:17.426Z,96094.25
2023-01-12T02:27:07.663Z,96086.84
2023-01-12T02:32:48.881Z,96073.25
2023-01-12T02:38:15.749Z,96069.34
2023-01-12T02:43:24.663Z,96067.25
2023-01-12T02:48:38.600Z,96071.91
2023-01-12T02:53:51.354Z,96081.41
2023-01-12T02:58:57.657Z,96077.94
2023-01-12T03:04:03.831Z,96064.97
2023-01-12T03:09:06.474Z,96057.94
2023-01-12T03:14:11.125Z,96049.41
2023-01-12T03:19:20.397Z,96041.06
2023-01-12T03:24:30.229Z,96047.78
2023-01-12T03:29:46.614Z,96035.28
2023-01-12T03:34:48.873Z,96029.00
2023-01-12T03:40:19.001Z,96023.50
2023-01-12T03:45:39.835Z,96027.34
2023-01-12T03:50:50.311Z,96024.22
2023-01-12T03:55:57.675Z,96020.38
2023-01-12T04:01:00.267Z,96018.44
2023-01-12T04:06:02.278Z,96016.78
2023-01-12T04:11:24.127Z,96005.78
2023-01-12T04:16:25.955Z,96008.44
2023-01-12T04:21:46.779Z,96007.94
2023-01-12T04:26:48.458Z,96007.72
2023-01-12T04:31:50.207Z,96004.66
2023-01-12T04:36:52.116Z,95998.34
2023-01-12T04:41:54.268Z,95987.16
2023-01-12T04:46:56.104Z,95978.59
2023-01-12T04:52:00.085Z,95981.88
2023-01-12T04:57:02.075Z,95976.53
2023-01-12T05:02:03.809Z,95992.00
2023-01-12T05:07:05.812Z,95987.38
2023-01-12T05:12:07.812Z,95992.88
2023-01-12T05:17:09.467Z,95990.59
2023-01-12T05:22:11.463Z,95985.88
2023-01-12T05:27:13.323Z,95975.66
2023-01-12T05:32:15.149Z,95978.31
2023-01-12T05:37:16.975Z,95971.75
2023-01-12T05:42:37.347Z,95976.22
2023-01-12T05:47:40.110Z,95970.47
2023-01-12T05:52:41.968Z,95974.38
2023-01-12T05:57:43.831Z,95970.09
2023-01-12T06:02:45.791Z,95980.28
2023-01-12T06:07:47.731Z,95971.53
2023-01-12T06:13:12.307Z,95970.31
2023-01-12T06:18:14.051Z,95980.38
2023-01-12T06:23:17.075Z,95963.28
2023-01-12T06:28:18.831Z,95967.50
2023-01-12T06:33:21.670Z,95961.69
2023-01-12T06:38:25.412Z,95953.09
2023-01-12T06:43:27.245Z,95959.88
2023-01-12T06:48:38.775Z,95958.22
2023-01-12T06:53:41.216Z,95958.81
2023-01-12T06:58:43.593Z,95975.84
2023-01-12T07:03:45.708Z,95978.28
2023-01-12T07:08:47.565Z,95962.03
2023-01-12T07:13:49.291Z,95967.44
2023-01-12T07:18:51.012Z,95953.09
2023-01-12T07:23:52.857Z,95950.41
2023-01-12T07:28:55.912Z,95959.66
2023-01-12T07:33:57.798Z,95956.25
2023-01-12T07:39:00.917Z,95964.88
2023-01-12T07:44:02.714Z,95952.81
2023-01-12T07:49:04.361Z,95958.25
2023-01-12T07:54:06.639Z,95947.19
2023-01-12T07:59:08.692Z,95918.22
2023-01-12T08:04:10.627Z,95942.69
2023-01-12T08:09:12.570Z,95929.59
2023-01-12T08:14:26.430Z,95928.84
2023-01-12T08:19:43.099Z,95921.34
2023-01-12T08:24:51.385Z,95916.00
2023-01-12T08:30:00.580Z,95921.19
2023-01-12T08:35:04.585Z,95917.19
2023-01-12T08:40:07.797Z,95924.63
2023-01-12T08:45:10.191Z,95939.81
2023-01-12T08:50:12.264Z,95922.63
2023-01-12T08:55:13.980Z,95931.09
2023-01-12T09:00:16.155Z,95927.91
2023-01-12T09:05:18.273Z,95931.63
2023-01-12T09:10:20.040Z,95923.59
2023-01-12T09:15:22.330Z,95919.28
2023-01-12T09:20:24.181Z,95916.63
2023-01-12T09:25:26.116Z,95915.97
2023-01-12T09:30:27.990Z,95928.53
2023-01-12T09:35:30.666Z,95927.09
2023-01-12T09:40:32.477Z,95925.22
2023-01-12T09:45:52.920Z,95922.78
2023-01-12T09:51:12.227Z,95905.34
2023-01-12T09:56:34.949Z,95904.91
2023-01-12T10:01:37.378Z,95909.19
2023-01-12T10:06:39.803Z,95904.78
2023-01-12T10:11:52.111Z,95895.19
2023-01-12T10:17:15.508Z,95922.47
2023-01-12T10:22:37.973Z,95895.00
2023-01-12T10:27:43.628Z,95896.69
2023-01-12T10:32:45.793Z,95895.94
2023-01-12T10:37:51.758Z,95881.75
2023-01-12T10:43:22.725Z,95884.59
2023-01-12T10:48:26.762Z,95869.13
2023-01-12T10:53:40.937Z,95874.56
2023-01-12T10:58:47.719Z,95866.84
2023-01-12T11:03:49.732Z,95854.38
2023-01-12T11:08:52.130Z,95851.72
2023-01-12T11:14:03.108Z,95844.25
2023-01-12T11:19:18.943Z,95815.09
2023-01-12T11:24:27.079Z,95824.91
2023-01-12T11:29:38.235Z,95812.88
2023-01-12T11:34:54.634Z,95799.03
2023-01-12T11:40:23.036Z,95793.59
2023-01-12T11:45:41.204Z,95783.13
2023-01-12T11:50:44.701Z,95750.56
2023-01-12T11:55:57.666Z,95780.34
2023-01-12T12:01:28.479Z,95774.66
2023-01-12T12:06:30.293Z,95769.28
2023-01-12T12:11:51.253Z,95778.34
2023-01-12T12:17:19.658Z,95781.50
2023-01-12T12:23:00.201Z,95759.66
2023-01-12T12:28:32.799Z,95768.28
2023-01-12T12:33:56.797Z,95758.59
2023-01-12T12:39:32.877Z,95737.19
2023-01-12T12:45:18.399Z,95750.75
2023-01-12T12:50:29.334Z,95743.00
2023-01-12T12:55:31.755Z,95748.09
2023-01-12T13:00:40.535Z,95727.97
2023-01-12T13:05:43.758Z,95739.63
2023-01-12T13:10:51.490Z,95750.91
2023-01-12T13:16:19.498Z,95732.63
2023-01-12T13:21:27.561Z,95734.72
2023-01-12T13:26:35.694Z,95721.16
2023-01-12T13:31:38.997Z,95739.81
2023-01-12T13:36:40.901Z,95714.19
2023-01-12T13:42:02.120Z,95719.66
2023-01-12T13:47:10.343Z,95718.53
2023-01-12T13:52:29.261Z,95713.09
2023-01-12T13:57:32.047Z,95721.66
2023-01-12T14:02:34.391Z,95716.16
2023-01-12T14:07:45.590Z,95706.44
2023-01-12T14:12:56.897Z,95720.13
2023-01-12T14:18:19.413Z,95717.41
2023-01-12T14:23:27.231Z,95739.59
2023-01-12T14:28:29.876Z,95709.69
2023-01-12T14:33:38.229Z,95710.72
2023-01-12T14:38:42.315Z,95696.78
2023-01-12T14:44:04.314Z,95695.66
2023-01-12T14:49:28.930Z,95689.44
2023-01-12T14:54:33.654Z,95691.09
2023-01-12T14:59:43.698Z,95702.75
2023-01-12T15:04:54.140Z,95702.41
2023-01-12T15:09:58.855Z,95700.84
2023-01-12T15:15:24.070Z,95703.56
2023-01-12T15:20:49.266Z,95705.84
2023-01-12T15:25:51.203Z,95706.28
2023-01-12T15:30:55.563Z,95697.72
2023-01-12T15:35:58.589Z,95710.16
2023-01-12T15:41:00.375Z,95703.94
2023-01-12T15:46:02.215Z,95694.94
2023-01-12T15:51:05.446Z,95689.50
2023-01-12T15:56:11.672Z,95715.94
2023-01-12T16:01:16.886Z,95702.34
2023-01-12T16:06:18.938Z,95709.00
2023-01-12T16:11:24.350Z,95701.63
2023-01-12T16:16:26.743Z,95722.56
2023-01-12T16:21:28.963Z,95716.41
2023-01-12T16:26:30.744Z,95725.00
2023-01-12T16:31:32.697Z,95712.16
2023-01-12T16:36:35.198Z,95717.22
2023-01-12T16:41:37.092Z,95713.34
2023-01-12T16:46:38.833Z,95714.09
2023-01-12T16:51:41.620Z,95698.13
2023-01-12T16:56:43.541Z,95703.94
2023-01-12T17:01:45.486Z,95703.94
2023-01-12T17:06:48.336Z,95696.97
2023-01-12T17:11:50.600Z,95682.16
2023-01-12T17:16:59.215Z,95682.56
2023-01-12T17:22:03.807Z,95681.78
2023-01-12T17:27:06.881Z,95684.47
2023-01-12T17:32:08.905Z,95688.41
2023-01-12T17:37:11.442Z,95681.03
2023-01-12T17:42:34.552Z,95697.31
2023-01-12T17:47:37.266Z,95670.50
2023-01-12T17:52:41.933Z,95677.91
2023-01-12T17:57:45.434Z,95657.72
2023-01-12T18:02:50.903Z,95656.59
2023-01-12T18:07:52.861Z,95645.28
2023-01-12T18:12:54.625Z,95651.09
2023-01-12T18:23:19.780Z,95642.16
2023-01-12T18:28:21.647Z,95635.88
2023-01-12T18:33:28.583Z,95628.13
2023-01-12T18:38:31.861Z,95631.97
2023-01-12T18:43:34.292Z,95628.50
2023-01-12T18:48:47.657Z,95622.63
2023-01-12T18:53:49.500Z,95621.47
2023-01-12T18:58:52.317Z,95626.91
2023-01-12T19:03:54.394Z,95629.19
2023-01-12T19:09:15.155Z,95626.44
2023-01-12T19:14:35.987Z,95621.00
2023-01-12T19:19:38.226Z,95615.97
2023-01-12T19:24:58.882Z,95616.31
2023-01-12T19:30:01.130Z,95625.31
2023-01-12T19:35:10.889Z,95612.88
2023-01-12T19:40:24.500Z,95603.59
2023-01-12T19:45:27.683Z,95609.84
2023-01-12T19:50:30.207Z,95597.78
2023-01-12T19:55:33.366Z,95595.06
2023-01-12T20:00:46.723Z,95595.84
2023-01-12T20:05:51.308Z,95593.13
2023-01-12T20:10:59.101Z,95589.19
2023-01-12T20:16:10.598Z,95593.50
2023-01-12T20:21:12.953Z,95583.00
2023-01-12T20:26:15.786Z,95584.53
2023-01-12T20:31:20.981Z,95577.16
2023-01-12T20:36:23.295Z,95568.59
2023-01-12T20:41:26.640Z,95581.03
2023-01-12T20:46:28.890Z,95578.31
2023-01-12T20:51:31.409Z,95576.00
2023-01-12T20:56:33.559Z,95568.59
2023-01-12T21:01:35.620Z,95558.88
2023-01-12T21:06:42.145Z,95557.69
2023-01-12T21:11:47.104Z,95549.16
2023-01-12T21:16:49.060Z,95550.34
2023-01-12T21:21:51.730Z,95548.38
2023-01-12T21:26:57.964Z,95555.00
2023-01-12T21:31:59.833Z,95546.44
2023-01-12T21:37:01.615Z,95555.41
2023-01-12T21:42:22.268Z,95549.16
2023-01-12T21:47:23.990Z,95549.16
2023-01-12T21:52:31.383Z,95534.78
2023-01-12T21:57:33.060Z,95534.38
2023-01-12T22:02:35.205Z,95536.31
2023-01-12T22:07:37.011Z,95539.78
2023-01-12T22:12:38.808Z,95530.06
2023-01-12T22:17:40.535Z,95537.44
2023-01-12T22:22:42.868Z,95522.66
2023-01-12T22:27:45.054Z,95522.66
2023-01-12T22:32:47.360Z,95537.84
2023-01-12T22:37:49.068Z,95528.88
2023-01-12T22:43:11.548Z,95537.03
2023-01-12T22:48:13.318Z,95530.38
2023-01-12T22:53:15.126Z,95538.44
2023-01-12T22:58:19.605Z,95547.34
2023-01-12T23:03:21.662Z,95539.97
2023-01-12T23:08:24.984Z,95537.25
2023-01-12T23:13:26.957Z,95543.81
2023-01-12T23:18:31.154Z,95528.31
2023-01-12T23:23:33.271Z,95539.91
2023-01-12T23:28:41.328Z,95534.47
2023-01-12T23:33:44.116Z,95532.94
2023-01-12T23:38:46.807Z,95539.91
2023-01-12T23:43:50.754Z,95525.59
2023-01-12T23:48:55.313Z,95522.47
2023-01-12T23:53:59.784Z,95514.72
2023-01-12T23:59:01.879Z,95506.56
